Time;durP1;ratioP1;P1;durP2;ratioP2;P2;SDS_P1;SDS_P2;PMS_P1;PMS_P2;Temp;Humidity;BMP_temperature;BMP_pressure;BME280_temperature;BME280_humidity;BME280_pressure;Samples;Min_cycle;Max_cycle;Signal;HPM_P1;HPM_P2
2022/03/30 00:01:52;;;;;;;66.10;4.88;;;26.40;30.90;;;;;;5000168;28;20077;-66
2022/03/30 00:04:18;;;;;;;4.20;1.05;;;26.30;31.10;;;;;;4991069;28;20086;-65
2022/03/30 00:06:45;;;;;;;10.65;1.23;;;26.20;31.00;;;;;;4998153;28;20078;-67
2022/03/30 00:09:11;;;;;;;11.05;1.38;;;26.40;31.00;;;;;;4995318;28;20124;-66
2022/03/30 00:11:38;;;;;;;4.45;0.98;;;26.30;30.80;;;;;;4996934;28;20070;-66
2022/03/30 00:14:04;;;;;;;5.55;1.00;;;26.20;31.00;;;;;;4976541;28;20088;-65
2022/03/30 00:16:33;;;;;;;2.97;1.05;;;26.20;31.10;;;;;;4996332;28;20116;-68
2022/03/30 00:19:00;;;;;;;9.27;0.90;;;26.00;31.20;;;;;;4986009;28;20077;-68
2022/03/30 00:21:27;;;;;;;4.13;1.23;;;25.90;31.50;;;;;;4996424;28;20078;-65
2022/03/30 00:23:53;;;;;;;4.28;1.05;;;26.20;31.30;;;;;;4992746;28;20128;-66
2022/03/30 00:26:19;;;;;;;5.47;0.98;;;26.00;31.00;;;;;;4995989;28;20101;-66
2022/03/30 00:28:46;;;;;;;2.25;0.88;;;26.20;31.10;;;;;;5004089;28;20096;-67
2022/03/30 00:31:12;;;;;;;26.13;2.40;;;26.20;31.00;;;;;;5000269;28;20111;-69
2022/03/30 00:33:39;;;;;;;3.13;0.98;;;26.20;30.60;;;;;;4993914;28;20223;-65
2022/03/30 00:36:05;;;;;;;3.53;0.93;;;25.80;31.00;;;;;;4994002;28;20074;-68
2022/03/30 00:38:32;;;;;;;2.42;0.85;;;25.70;31.10;;;;;;4995056;28;21487;-65
2022/03/30 00:41:00;;;;;;;4.03;0.90;;;25.70;31.50;;;;;;4999743;28;20540;-64
2022/03/30 00:43:26;;;;;;;3.25;0.90;;;25.70;31.40;;;;;;4997038;28;20070;-64
2022/03/30 00:45:53;;;;;;;1.80;0.80;;;25.50;30.90;;;;;;4997135;28;20167;-67
2022/03/30 00:48:19;;;;;;;3.83;0.80;;;25.40;31.40;;;;;;4992917;28;20073;-65
2022/03/30 00:50:45;;;;;;;3.38;0.82;;;25.40;31.60;;;;;;4995504;28;20148;-65
2022/03/30 00:55:47;;;;;;;2.83;1.00;;;25.30;31.50;;;;;;5364227;23;20237;-65
2022/03/30 00:58:14;;;;;;;1.77;0.65;;;25.30;31.40;;;;;;4964973;28;20128;-64
2022/03/30 01:00:41;;;;;;;15.25;1.88;;;25.10;31.30;;;;;;4969199;28;20101;-66
2022/03/30 01:03:07;;;;;;;12.68;1.33;;;25.00;31.60;;;;;;4971309;28;20078;-65
2022/03/30 01:05:34;;;;;;;4.45;0.98;;;25.10;31.30;;;;;;4973747;28;20532;-60
2022/03/30 01:08:00;;;;;;;5.90;1.02;;;25.00;31.50;;;;;;4969257;28;20074;-61
2022/03/30 01:10:27;;;;;;;6.72;0.90;;;25.00;32.00;;;;;;4967918;28;20082;-60
2022/03/30 01:12:54;;;;;;;6.18;1.10;;;25.10;32.50;;;;;;4972125;28;20081;-61
2022/03/30 01:15:22;;;;;;;4.50;1.23;;;24.90;32.30;;;;;;4956512;28;20082;-60
2022/03/30 01:17:49;;;;;;;6.68;1.05;;;24.90;32.40;;;;;;4968528;28;20233;-59
2022/03/30 01:20:21;;;;;;;2.05;1.00;;;24.80;32.50;;;;;;4968954;28;20074;-62
2022/03/30 01:22:48;;;;;;;6.10;1.27;;;24.70;32.50;;;;;;4962238;28;20074;-66
2022/03/30 01:25:15;;;;;;;9.52;1.30;;;24.50;32.80;;;;;;4982546;28;20097;-61
2022/03/30 01:27:41;;;;;;;9.40;1.50;;;24.40;33.20;;;;;;4970898;28;20157;-61
2022/03/30 01:33:06;;;;;;;8.25;1.15;;;24.30;33.60;;;;;;4969417;28;20128;-60
2022/03/30 01:35:32;;;;;;;13.93;1.80;;;24.10;33.80;;;;;;4968167;28;20070;-60
2022/03/30 01:37:59;;;;;;;8.98;1.63;;;24.00;33.90;;;;;;4969123;28;20074;-60
2022/03/30 01:40:26;;;;;;;9.48;1.27;;;24.00;33.90;;;;;;4968650;28;20098;-59
2022/03/30 01:42:52;;;;;;;11.25;1.58;;;23.90;34.10;;;;;;4967824;28;20606;-61
2022/03/30 01:45:19;;;;;;;9.43;1.60;;;23.80;34.30;;;;;;4968215;28;20188;-60
2022/03/30 01:47:51;;;;;;;8.48;1.35;;;23.70;34.90;;;;;;4969190;28;20066;-61
2022/03/30 01:50:18;;;;;;;11.90;1.40;;;23.60;35.30;;;;;;4951610;28;20071;-62
2022/03/30 01:52:45;;;;;;;9.50;1.83;;;23.60;35.30;;;;;;4969081;28;20165;-63
2022/03/30 01:55:12;;;;;;;13.00;1.67;;;23.40;35.50;;;;;;4965330;28;20158;-60
2022/03/30 01:57:38;;;;;;;12.70;1.77;;;23.40;35.80;;;;;;4953002;28;20074;-61
2022/03/30 02:00:05;;;;;;;6.88;1.48;;;23.20;36.10;;;;;;4965391;28;20087;-62
2022/03/30 02:02:32;;;;;;;11.55;2.38;;;23.20;36.30;;;;;;4957071;28;20125;-62
2022/03/30 02:04:58;;;;;;;17.15;1.90;;;23.10;36.50;;;;;;4964600;28;20118;-63
2022/03/30 02:07:25;;;;;;;19.05;2.00;;;23.10;36.70;;;;;;4948257;28;20071;-61
2022/03/30 02:09:51;;;;;;;13.23;1.40;;;23.10;36.60;;;;;;4965040;28;20109;-64
2022/03/30 02:12:18;;;;;;;10.25;2.08;;;23.20;36.50;;;;;;4971503;28;20166;-63
2022/03/30 02:14:45;;;;;;;7.65;1.63;;;23.00;36.60;;;;;;4968647;28;20075;-62
2022/03/30 02:17:11;;;;;;;15.18;2.33;;;22.90;36.80;;;;;;4958466;28;20164;-61
2022/03/30 02:19:37;;;;;;;17.27;2.70;;;22.80;37.10;;;;;;4977630;28;20110;-61
2022/03/30 02:22:04;;;;;;;14.05;1.80;;;22.80;37.40;;;;;;4970166;28;20597;-62
2022/03/30 02:24:31;;;;;;;14.52;1.83;;;22.80;37.70;;;;;;4953595;28;20096;-63
2022/03/30 02:26:57;;;;;;;18.55;1.75;;;22.70;37.70;;;;;;4971636;28;20090;-62
2022/03/30 02:29:23;;;;;;;10.05;1.50;;;22.60;38.00;;;;;;4957548;28;20478;-61
2022/03/30 02:31:50;;;;;;;10.60;1.95;;;22.60;38.70;;;;;;4972900;28;20173;-61
2022/03/30 02:34:16;;;;;;;11.50;1.90;;;22.50;38.20;;;;;;4954344;28;20117;-62
2022/03/30 02:36:45;;;;;;;10.35;1.60;;;22.40;38.40;;;;;;4953541;28;20102;-64
2022/03/30 02:39:12;;;;;;;7.78;2.00;;;22.30;38.30;;;;;;4953738;28;20074;-60
2022/03/30 02:41:39;;;;;;;8.52;2.15;;;22.40;38.40;;;;;;4960002;28;20103;-61
2022/03/30 02:44:05;;;;;;;15.43;1.60;;;22.20;38.70;;;;;;4952777;28;20102;-62
2022/03/30 02:46:32;;;;;;;8.15;1.60;;;22.30;38.90;;;;;;4952788;28;20087;-62
2022/03/30 02:48:59;;;;;;;7.57;1.80;;;22.30;38.80;;;;;;4952829;28;20450;-62
2022/03/30 02:51:27;;;;;;;20.27;1.98;;;22.20;39.00;;;;;;4968474;28;20086;-61
2022/03/30 02:53:55;;;;;;;10.70;1.92;;;22.20;38.90;;;;;;4967748;28;20076;-62
2022/03/30 02:56:21;;;;;;;8.82;1.73;;;22.10;39.00;;;;;;4968496;28;20114;-62
2022/03/30 02:58:48;;;;;;;6.15;1.77;;;22.20;39.20;;;;;;4966875;28;20103;-61
2022/03/30 03:01:14;;;;;;;8.00;1.48;;;22.10;39.40;;;;;;4949821;28;20075;-62
2022/03/30 03:03:41;;;;;;;10.70;2.10;;;22.00;40.30;;;;;;4953406;28;20146;-62
2022/03/30 03:06:07;;;;;;;5.63;1.45;;;21.90;39.90;;;;;;4950925;28;20177;-61
2022/03/30 03:08:33;;;;;;;7.93;1.95;;;21.80;40.30;;;;;;4953015;28;20075;-58
2022/03/30 03:11:00;;;;;;;10.38;1.80;;;21.80;40.50;;;;;;4967913;28;20171;-60
2022/03/30 03:13:26;;;;;;;9.55;1.35;;;21.70;40.80;;;;;;4969044;28;20072;-61
2022/03/30 03:15:53;;;;;;;6.68;2.28;;;21.70;41.00;;;;;;4952736;28;20092;-62
2022/03/30 03:18:20;;;;;;;8.63;2.47;;;21.70;41.10;;;;;;4970017;28;20125;-62
2022/03/30 03:20:47;;;;;;;14.90;2.70;;;21.60;41.20;;;;;;4967873;28;20083;-61
2022/03/30 03:23:15;;;;;;;10.60;2.70;;;21.50;41.60;;;;;;4966125;28;20080;-63
2022/03/30 03:25:42;;;;;;;8.52;2.47;;;21.60;41.70;;;;;;4967761;28;20090;-61
2022/03/30 03:28:13;;;;;;;7.78;2.10;;;21.50;41.80;;;;;;4952303;28;20072;-63
2022/03/30 03:30:41;;;;;;;11.80;2.70;;;21.40;42.10;;;;;;4970964;28;20170;-60
2022/03/30 03:33:08;;;;;;;6.95;2.00;;;21.40;42.50;;;;;;4954380;28;20163;-60
2022/03/30 03:35:35;;;;;;;14.80;2.00;;;21.40;42.70;;;;;;4967651;28;20083;-62
2022/03/30 03:38:04;;;;;;;5.60;1.67;;;21.30;42.80;;;;;;4951125;28;20074;-62
2022/03/30 03:40:31;;;;;;;7.82;1.75;;;21.20;42.90;;;;;;4966475;28;20153;-60
2022/03/30 03:43:01;;;;;;;4.70;1.90;;;21.20;43.10;;;;;;4952967;28;20080;-63
2022/03/30 03:45:28;;;;;;;7.20;1.98;;;21.10;43.30;;;;;;4967021;28;20107;-63
2022/03/30 03:47:55;;;;;;;4.53;1.40;;;21.10;43.40;;;;;;4967144;28;20130;-62
2022/03/30 03:50:21;;;;;;;4.97;1.70;;;21.00;43.40;;;;;;4968305;28;20075;-64
2022/03/30 03:52:48;;;;;;;6.90;2.35;;;21.10;43.40;;;;;;4952331;28;20162;-61
2022/03/30 03:55:15;;;;;;;7.35;2.17;;;21.10;43.40;;;;;;4967025;28;20526;-65
2022/03/30 03:57:42;;;;;;;7.22;2.33;;;21.00;43.30;;;;;;4968092;28;20115;-63
2022/03/30 04:00:11;;;;;;;15.07;1.88;;;21.00;43.30;;;;;;4974301;28;20075;-64
2022/03/30 04:02:38;;;;;;;8.02;2.00;;;21.00;43.40;;;;;;4950236;28;20076;-65
2022/03/30 04:05:05;;;;;;;7.40;1.75;;;20.90;43.50;;;;;;4966903;28;20092;-65
2022/03/30 04:07:33;;;;;;;14.77;2.58;;;20.90;43.60;;;;;;4953202;28;20080;-64
2022/03/30 04:10:01;;;;;;;12.95;2.03;;;20.90;43.70;;;;;;4967795;28;20167;-62
2022/03/30 04:12:28;;;;;;;14.23;2.33;;;20.90;43.70;;;;;;4953275;28;20076;-64
2022/03/30 04:14:54;;;;;;;10.77;3.40;;;20.90;43.80;;;;;;4967790;28;20108;-67
2022/03/30 04:17:20;;;;;;;17.85;2.38;;;20.80;43.90;;;;;;4967175;28;20107;-64
2022/03/30 04:19:47;;;;;;;15.85;2.67;;;20.80;44.10;;;;;;4967412;28;20080;-63
2022/03/30 04:22:14;;;;;;;13.15;2.40;;;20.70;44.30;;;;;;4950672;28;20154;-63
2022/03/30 04:24:41;;;;;;;6.53;1.88;;;20.70;44.70;;;;;;4951924;28;20142;-65
2022/03/30 04:27:07;;;;;;;10.40;2.03;;;20.60;44.60;;;;;;4951693;28;20107;-63
2022/03/30 04:29:33;;;;;;;5.50;1.85;;;20.60;44.80;;;;;;4966312;28;20159;-66
2022/03/30 04:32:00;;;;;;;8.90;2.55;;;20.50;45.00;;;;;;4972716;28;20434;-66
2022/03/30 04:34:27;;;;;;;12.68;2.60;;;20.50;45.20;;;;;;4965043;28;20083;-63
2022/03/30 04:36:53;;;;;;;10.30;3.50;;;20.50;45.40;;;;;;4957859;28;20118;-65
2022/03/30 04:39:21;;;;;;;13.82;2.78;;;20.50;45.50;;;;;;4965903;28;20094;-63
2022/03/30 04:41:48;;;;;;;10.65;2.40;;;20.40;45.90;;;;;;4965810;28;20543;-63
2022/03/30 04:44:14;;;;;;;11.75;2.63;;;20.40;46.00;;;;;;4966840;28;20107;-62
2022/03/30 04:46:41;;;;;;;6.75;1.73;;;20.30;46.10;;;;;;4951481;28;20561;-63
2022/03/30 04:49:09;;;;;;;8.77;2.03;;;20.20;46.30;;;;;;4964418;28;20096;-66
2022/03/30 04:51:36;;;;;;;11.02;2.50;;;20.20;46.40;;;;;;4964514;28;20095;-65
2022/03/30 04:54:03;;;;;;;24.27;3.03;;;20.20;46.50;;;;;;4948230;28;20131;-66
2022/03/30 04:56:29;;;;;;;6.15;1.92;;;20.20;46.50;;;;;;4950687;28;20165;-65
2022/03/30 04:58:56;;;;;;;10.25;2.08;;;20.20;46.50;;;;;;4971743;28;20102;-62
2022/03/30 05:01:22;;;;;;;9.05;2.13;;;20.20;46.60;;;;;;4963908;28;20075;-66
2022/03/30 05:03:48;;;;;;;8.70;1.90;;;20.20;46.60;;;;;;4948281;28;21378;-64
2022/03/30 05:06:15;;;;;;;10.20;3.15;;;20.20;46.60;;;;;;4968153;28;20080;-65
2022/03/30 05:08:41;;;;;;;6.75;2.03;;;20.20;46.60;;;;;;4948419;28;20083;-63
2022/03/30 05:11:08;;;;;;;8.18;3.00;;;20.20;46.80;;;;;;4949295;28;20076;-63
2022/03/30 05:13:36;;;;;;;11.73;2.95;;;20.20;46.80;;;;;;4950204;28;20126;-63
2022/03/30 05:16:03;;;;;;;12.85;2.70;;;20.20;46.90;;;;;;4965177;28;20100;-65
2022/03/30 05:18:29;;;;;;;7.68;2.10;;;20.10;47.00;;;;;;4957092;28;20078;-63
2022/03/30 05:20:56;;;;;;;10.52;2.55;;;20.10;47.00;;;;;;4950761;28;20083;-65
2022/03/30 05:23:22;;;;;;;10.95;2.65;;;20.10;47.10;;;;;;4962084;28;20490;-64
2022/03/30 05:25:49;;;;;;;10.60;2.72;;;20.10;47.10;;;;;;4949125;28;20095;-63
2022/03/30 05:28:15;;;;;;;7.00;2.08;;;20.00;47.20;;;;;;4950080;28;20539;-63
2022/03/30 05:30:42;;;;;;;14.48;3.75;;;20.00;47.20;;;;;;4964676;28;20083;-63
2022/03/30 05:33:08;;;;;;;15.70;4.07;;;19.90;47.30;;;;;;4966115;28;20072;-64
2022/03/30 05:35:36;;;;;;;9.70;2.95;;;20.00;47.30;;;;;;4949825;28;20083;-62
2022/03/30 05:38:03;;;;;;;10.00;2.13;;;20.00;47.90;;;;;;4949629;28;20107;-64
2022/03/30 05:40:30;;;;;;;7.75;2.35;;;20.00;47.20;;;;;;4965015;28;20147;-64
2022/03/30 05:42:57;;;;;;;7.63;2.95;;;20.00;47.20;;;;;;4965343;28;20129;-64
2022/03/30 05:45:24;;;;;;;8.35;2.58;;;20.00;47.20;;;;;;4965322;28;20127;-65
2022/03/30 05:47:50;;;;;;;10.13;2.30;;;19.90;47.20;;;;;;4969060;28;20447;-62
2022/03/30 05:50:16;;;;;;;11.02;2.33;;;20.00;47.20;;;;;;4970057;28;20072;-63
2022/03/30 05:52:43;;;;;;;12.90;2.85;;;19.90;47.30;;;;;;4969968;28;20076;-67
2022/03/30 05:55:10;;;;;;;11.23;4.10;;;19.90;47.50;;;;;;4954386;28;20115;-64
2022/03/30 05:57:36;;;;;;;7.88;2.08;;;19.90;47.70;;;;;;4971764;28;20551;-63
2022/03/30 06:00:06;;;;;;;9.18;2.00;;;19.80;48.00;;;;;;4953432;28;20103;-63
2022/03/30 06:02:32;;;;;;;8.10;2.30;;;19.70;48.20;;;;;;4966595;28;20079;-65
2022/03/30 06:04:59;;;;;;;8.63;2.10;;;19.70;48.50;;;;;;4967329;28;20158;-63
2022/03/30 06:07:25;;;;;;;11.98;1.95;;;19.60;48.60;;;;;;4953023;28;20088;-63
2022/03/30 06:09:52;;;;;;;9.23;1.83;;;19.60;48.70;;;;;;4968834;28;20131;-65
2022/03/30 06:12:18;;;;;;;7.40;1.98;;;19.60;48.80;;;;;;4954745;28;20128;-66
2022/03/30 06:14:45;;;;;;;6.32;1.83;;;19.60;48.90;;;;;;4968395;28;20099;-63
2022/03/30 06:17:14;;;;;;;9.00;2.40;;;19.60;49.00;;;;;;4958983;28;20108;-64
2022/03/30 06:19:40;;;;;;;9.15;2.55;;;19.50;49.20;;;;;;4954647;28;20119;-65
2022/03/30 06:22:10;;;;;;;11.65;2.28;;;19.50;49.30;;;;;;4967725;28;20507;-63
2022/03/30 06:24:41;;;;;;;11.57;2.60;;;19.40;49.50;;;;;;4971259;28;20094;-64
2022/03/30 06:27:09;;;;;;;6.75;2.33;;;19.40;49.50;;;;;;4959702;28;20068;-64
2022/03/30 06:29:37;;;;;;;7.20;2.58;;;19.40;49.50;;;;;;4954450;28;20088;-64
2022/03/30 06:32:04;;;;;;;7.93;2.10;;;19.40;49.60;;;;;;4971953;28;20098;-65
2022/03/30 06:34:31;;;;;;;7.55;2.08;;;19.30;49.70;;;;;;4953503;28;20444;-63
2022/03/30 06:36:58;;;;;;;9.35;1.90;;;19.30;50.40;;;;;;4954159;28;20087;-64
2022/03/30 06:39:24;;;;;;;11.27;2.25;;;19.30;50.10;;;;;;4955789;28;20447;-64
2022/03/30 06:41:51;;;;;;;10.25;2.53;;;19.30;50.10;;;;;;4955830;28;20080;-62
2022/03/30 06:44:17;;;;;;;9.75;1.98;;;19.20;50.30;;;;;;4954622;28;20190;-63
2022/03/30 06:46:44;;;;;;;7.50;2.05;;;19.20;50.50;;;;;;4957385;28;20060;-62
2022/03/30 06:49:11;;;;;;;11.98;2.15;;;19.10;50.50;;;;;;4954283;28;20096;-63
2022/03/30 06:51:38;;;;;;;9.70;2.78;;;19.10;50.60;;;;;;4954658;28;20103;-64
2022/03/30 06:54:05;;;;;;;8.52;2.50;;;19.10;50.70;;;;;;4953727;28;20138;-63
2022/03/30 06:56:31;;;;;;;10.00;2.05;;;19.10;50.80;;;;;;4970985;28;20116;-65
2022/03/30 06:58:58;;;;;;;10.18;2.33;;;19.00;50.90;;;;;;4967617;28;20578;-64
2022/03/30 07:01:24;;;;;;;7.65;2.08;;;19.00;50.90;;;;;;4970408;28;20468;-62
2022/03/30 07:03:51;;;;;;;7.28;2.10;;;19.00;51.20;;;;;;4951686;28;20562;-62
2022/03/30 07:06:17;;;;;;;10.65;2.15;;;19.00;51.10;;;;;;4968305;28;20084;-64
2022/03/30 07:11:28;;;;;;;11.90;2.25;;;19.00;51.20;;;;;;4950773;28;20082;-64
2022/03/30 07:13:57;;;;;;;10.73;2.45;;;18.90;51.40;;;;;;4967372;28;20605;-65
2022/03/30 07:16:24;;;;;;;13.60;2.00;;;18.80;51.60;;;;;;4968896;28;20120;-63
2022/03/30 07:18:51;;;;;;;8.45;2.35;;;18.70;51.80;;;;;;4953329;28;20167;-63
2022/03/30 07:21:17;;;;;;;8.90;2.25;;;18.70;52.20;;;;;;4956290;28;20068;-62
2022/03/30 07:23:43;;;;;;;10.32;2.08;;;18.60;52.20;;;;;;4955751;28;20467;-65
2022/03/30 07:26:10;;;;;;;14.98;2.03;;;18.60;52.40;;;;;;4969190;28;20476;-63
2022/03/30 07:28:37;;;;;;;;;;;18.60;52.60;;;;;;4956880;28;20072;-63
2022/03/30 07:31:04;;;;;;;14.13;2.03;;;18.60;52.50;;;;;;4952877;28;19967;-65
2022/03/30 07:33:32;;;;;;;13.07;2.17;;;18.60;52.50;;;;;;4956723;28;20170;-63
2022/03/30 07:36:00;;;;;;;9.43;2.13;;;18.50;52.60;;;;;;4951935;28;20087;-62
2022/03/30 07:38:26;;;;;;;9.57;1.80;;;18.50;52.90;;;;;;4952884;28;20083;-64
2022/03/30 07:40:54;;;;;;;8.73;2.00;;;18.40;53.20;;;;;;4969214;28;20436;-65
2022/03/30 07:43:20;;;;;;;9.32;2.28;;;18.40;53.40;;;;;;4954534;28;20624;-66
2022/03/30 07:45:47;;;;;;;10.85;2.30;;;18.30;53.50;;;;;;4968691;28;20100;-64
2022/03/30 07:48:13;;;;;;;10.40;2.10;;;18.30;53.60;;;;;;4971711;28;20071;-64
2022/03/30 07:50:40;;;;;;;10.85;2.17;;;18.30;53.90;;;;;;4969465;28;20082;-66
2022/03/30 07:53:10;;;;;;;18.83;2.35;;;18.30;54.40;;;;;;4970271;28;20087;-64
2022/03/30 07:55:39;;;;;;;7.65;2.20;;;18.30;54.70;;;;;;4951743;28;20575;-63
2022/03/30 07:58:06;;;;;;;8.82;2.00;;;18.40;54.50;;;;;;4953241;28;20416;-63
2022/03/30 08:00:32;;;;;;;12.30;2.83;;;18.40;54.10;;;;;;4951831;28;20080;-63
2022/03/30 08:03:00;;;;;;;7.43;2.17;;;18.40;54.20;;;;;;4966137;28;20478;-64
2022/03/30 08:05:26;;;;;;;11.02;2.10;;;18.40;54.20;;;;;;4951786;28;20175;-63
2022/03/30 08:07:53;;;;;;;10.32;2.33;;;18.40;54.20;;;;;;4956090;28;20163;-65
2022/03/30 08:10:19;;;;;;;8.48;2.00;;;18.30;54.40;;;;;;4947620;28;20166;-64
2022/03/30 08:12:47;;;;;;;9.05;2.05;;;18.30;54.80;;;;;;4950437;28;20088;-64
2022/03/30 08:15:14;;;;;;;12.38;2.10;;;18.30;55.00;;;;;;4964523;28;20076;-65
2022/03/30 08:17:42;;;;;;;8.40;2.30;;;18.20;55.20;;;;;;4936034;28;20087;-64
2022/03/30 08:20:09;;;;;;;8.40;1.73;;;18.10;55.40;;;;;;4962408;28;20451;-64
2022/03/30 08:22:35;;;;;;;11.68;1.92;;;18.20;55.70;;;;;;4952356;28;20079;-64
2022/03/30 08:25:10;;;;;;;8.75;2.20;;;18.10;55.80;;;;;;4951916;28;20092;-64
2022/03/30 08:27:37;;;;;;;7.07;2.00;;;18.00;56.20;;;;;;4948028;28;20106;-64
2022/03/30 08:30:05;;;;;;;9.18;1.92;;;18.10;56.20;;;;;;4935737;28;20075;-64
2022/03/30 08:32:32;;;;;;;7.93;1.83;;;18.20;56.20;;;;;;4953878;28;20103;-64
2022/03/30 08:34:59;;;;;;;12.48;2.13;;;18.30;55.90;;;;;;4966307;28;20146;-64
2022/03/30 08:37:26;;;;;;;6.95;2.05;;;18.30;55.60;;;;;;4970537;28;20531;-63
2022/03/30 08:39:53;;;;;;;8.43;2.20;;;18.20;55.70;;;;;;4967115;28;20222;-66
2022/03/30 08:42:20;;;;;;;8.57;2.35;;;18.30;55.60;;;;;;4951897;28;20174;-64
2022/03/30 08:44:47;;;;;;;8.55;2.10;;;18.30;55.70;;;;;;4935284;28;20115;-64
2022/03/30 08:47:14;;;;;;;8.65;1.95;;;18.30;55.60;;;;;;4968822;28;20080;-65
2022/03/30 08:49:42;;;;;;;11.70;2.50;;;18.30;55.90;;;;;;4966743;28;20107;-66
2022/03/30 08:52:10;;;;;;;10.55;2.38;;;18.20;56.20;;;;;;4953509;28;20074;-64
2022/03/30 08:54:41;;;;;;;12.18;2.55;;;18.10;56.60;;;;;;4918682;28;20486;-65
2022/03/30 08:57:08;;;;;;;6.93;1.90;;;18.00;56.70;;;;;;4965169;28;20194;-65
2022/03/30 08:59:34;;;;;;;8.73;1.98;;;18.00;56.80;;;;;;4951664;28;20088;-65
2022/03/30 09:02:01;;;;;;;18.33;2.47;;;18.00;56.60;;;;;;4955378;28;20165;-64
2022/03/30 09:04:27;;;;;;;10.95;2.13;;;17.90;56.80;;;;;;4966226;28;20095;-64
2022/03/30 09:06:59;;;;;;;9.25;2.33;;;17.80;57.00;;;;;;4949003;28;20067;-64
2022/03/30 09:09:35;;;;;;;10.90;2.00;;;17.80;57.10;;;;;;4953651;28;20079;-65
2022/03/30 09:12:07;;;;;;;10.33;2.20;;;17.80;57.20;;;;;;4929028;28;21423;-64
2022/03/30 09:14:37;;;;;;;7.72;1.95;;;17.70;57.30;;;;;;4965909;28;20082;-63
2022/03/30 09:17:07;;;;;;;16.58;2.80;;;17.70;57.40;;;;;;4952629;28;20083;-64
2022/03/30 09:19:36;;;;;;;12.05;2.90;;;17.70;57.50;;;;;;4949320;28;20094;-64
2022/03/30 09:22:05;;;;;;;14.30;2.25;;;17.70;57.50;;;;;;4951267;28;20075;-66
2022/03/30 09:24:35;;;;;;;11.90;2.42;;;17.80;57.00;;;;;;4968924;28;20642;-64
2022/03/30 09:27:03;;;;;;;8.43;2.35;;;17.80;57.30;;;;;;4954240;28;20075;-65
2022/03/30 09:29:32;;;;;;;12.02;2.58;;;17.70;57.50;;;;;;4951331;28;20556;-64
2022/03/30 09:32:07;;;;;;;11.80;2.20;;;17.70;58.00;;;;;;4935048;28;20075;-64
2022/03/30 09:34:48;;;;;;;8.85;2.35;;;17.60;58.10;;;;;;4934992;28;20075;-63
2022/03/30 09:37:15;;;;;;;12.32;2.65;;;17.50;58.40;;;;;;4946486;28;20293;-64
2022/03/30 09:39:43;;;;;;;13.45;3.08;;;17.50;58.70;;;;;;4967063;28;20084;-64
2022/03/30 09:42:11;;;;;;;13.10;2.90;;;17.50;58.60;;;;;;4952298;28;20080;-64
2022/03/30 09:44:56;;;;;;;15.07;3.00;;;17.40;58.90;;;;;;4949477;28;20094;-66
2022/03/30 09:47:23;;;;;;;12.95;3.38;;;17.50;58.60;;;;;;4949110;28;20079;-66
2022/03/30 09:49:52;;;;;;;25.63;4.10;;;17.40;58.60;;;;;;4952268;28;20571;-63
2022/03/30 09:52:20;;;;;;;16.25;3.10;;;17.40;59.00;;;;;;4948541;28;20571;-64
2022/03/30 09:55:01;;;;;;;13.90;3.00;;;17.40;59.10;;;;;;4967242;28;20178;-64
2022/03/30 09:57:34;;;;;;;18.33;3.42;;;17.30;59.40;;;;;;4948670;28;20087;-64
2022/03/30 10:00:12;;;;;;;14.93;2.85;;;17.30;59.50;;;;;;4949819;28;20087;-64
2022/03/30 10:02:47;;;;;;;19.23;3.85;;;17.30;59.30;;;;;;4946168;28;20082;-66
2022/03/30 10:05:16;;;;;;;20.80;3.75;;;17.30;59.00;;;;;;4964214;28;20098;-65
2022/03/30 10:07:45;;;;;;;16.92;3.72;;;17.30;59.80;;;;;;4943520;28;20072;-66
2022/03/30 10:10:13;;;;;;;30.92;3.60;;;17.20;59.80;;;;;;4934487;28;20107;-66
2022/03/30 10:12:40;;;;;;;20.88;4.47;;;17.20;60.10;;;;;;4963157;28;20075;-66
2022/03/30 10:15:08;;;;;;;14.60;3.17;;;17.10;60.00;;;;;;4963827;28;20166;-66
2022/03/30 10:17:36;;;;;;;15.73;3.47;;;17.10;60.20;;;;;;4950982;28;20542;-64
2022/03/30 10:20:04;;;;;;;18.90;3.90;;;17.10;60.50;;;;;;4948579;28;20084;-64
2022/03/30 10:23:08;;;;;;;24.83;3.97;;;17.00;61.20;;;;;;4954007;28;20191;-63
2022/03/30 10:25:56;;;;;;;15.15;3.55;;;17.00;61.20;;;;;;4963916;28;20140;-66
2022/03/30 10:28:43;;;;;;;16.70;3.53;;;17.10;61.00;;;;;;4954426;28;20067;-64
2022/03/30 10:31:11;;;;;;;16.45;3.53;;;17.00;61.50;;;;;;4964607;28;20114;-66
2022/03/30 10:33:42;;;;;;;12.25;3.45;;;16.90;60.90;;;;;;4937001;28;20544;-66
2022/03/30 10:36:32;;;;;;;18.38;3.88;;;16.90;60.90;;;;;;4952382;28;20082;-65
2022/03/30 10:39:11;;;;;;;21.27;3.95;;;16.80;61.80;;;;;;4949072;28;20092;-66
2022/03/30 10:42:08;;;;;;;18.50;4.00;;;16.80;61.70;;;;;;4968572;28;20079;-64
2022/03/30 10:44:46;;;;;;;16.70;3.80;;;16.90;62.20;;;;;;4861079;29;20188;-64
2022/03/30 10:47:20;;;;;;;16.65;4.75;;;16.80;61.70;;;;;;4863648;29;20145;-66
2022/03/30 10:50:02;;;;;;;22.65;5.25;;;16.70;62.40;;;;;;4847690;29;20493;-63
2022/03/30 10:52:41;;;;;;;17.65;4.88;;;16.70;62.60;;;;;;4861559;29;20565;-64
2022/03/30 10:55:29;;;;;;;18.35;4.05;;;16.70;63.10;;;;;;4877448;29;20116;-63
2022/03/30 10:57:58;;;;;;;19.00;3.90;;;16.80;62.50;;;;;;4863574;29;20117;-63
2022/03/30 11:00:27;;;;;;;14.50;3.53;;;16.70;63.00;;;;;;4878650;29;20130;-67
2022/03/30 11:03:21;;;;;;;18.63;4.32;;;16.70;62.90;;;;;;4879295;29;20103;-63
2022/03/30 11:06:00;;;;;;;17.65;4.25;;;16.60;62.50;;;;;;4863051;29;20095;-64
2022/03/30 11:08:33;;;;;;;17.02;4.32;;;16.50;63.10;;;;;;4862288;29;20090;-65
2022/03/30 11:11:21;;;;;;;17.70;3.97;;;16.50;63.70;;;;;;4877674;29;20086;-64
2022/03/30 11:13:47;;;;;;;26.45;4.60;;;16.60;64.40;;;;;;4876574;29;20085;-63
2022/03/30 11:16:14;;;;;;;;;;;16.50;64.60;;;;;;4878017;29;20097;-63
2022/03/30 11:19:02;;;;;;;20.70;4.28;;;16.50;64.50;;;;;;4863149;29;19961;-63
2022/03/30 11:21:29;;;;;;;16.77;4.60;;;16.50;64.00;;;;;;4925274;28;20222;-64
2022/03/30 11:24:07;;;;;;;11.55;4.70;;;16.40;63.80;;;;;;4967122;28;20123;-63
2022/03/30 11:27:06;;;;;;;22.23;4.90;;;16.40;64.00;;;;;;4951948;28;20083;-64
2022/03/30 11:29:52;;;;;;;26.58;5.28;;;16.40;64.90;;;;;;4949613;28;20191;-65
2022/03/30 11:32:24;;;;;;;24.45;4.50;;;16.30;65.30;;;;;;4967955;28;20176;-63
2022/03/30 11:34:53;;;;;;;33.55;5.68;;;16.30;65.90;;;;;;4953840;28;20082;-63
2022/03/30 11:37:25;;;;;;;20.95;5.68;;;16.20;66.30;;;;;;4967672;28;20079;-63
2022/03/30 11:40:08;;;;;;;23.08;5.88;;;16.20;65.90;;;;;;4953560;28;20095;-65
2022/03/30 11:42:43;;;;;;;27.05;6.43;;;16.10;65.90;;;;;;4950204;28;20079;-62
2022/03/30 11:45:15;;;;;;;22.42;5.45;;;16.00;66.30;;;;;;4964525;28;20087;-63
2022/03/30 11:47:45;;;;;;;23.33;5.82;;;16.10;66.60;;;;;;4953226;28;20085;-63
2022/03/30 11:50:30;;;;;;;24.52;5.82;;;16.10;66.30;;;;;;4934222;28;20068;-63
2022/03/30 11:53:00;;;;;;;21.05;5.30;;;16.00;67.00;;;;;;4934683;28;20099;-63
2022/03/30 11:55:30;;;;;;;17.60;4.93;;;16.10;67.60;;;;;;4935764;28;20210;-64
2022/03/30 11:57:58;;;;;;;22.60;6.13;;;16.10;67.70;;;;;;4951229;28;20540;-63
2022/03/30 12:00:27;;;;;;;28.85;5.60;;;16.10;67.90;;;;;;4953156;28;20441;-63
2022/03/30 12:02:58;;;;;;;30.17;6.18;;;16.10;68.10;;;;;;4952295;28;20080;-67
2022/03/30 12:05:25;;;;;;;37.60;7.18;;;16.00;68.00;;;;;;4951456;28;20515;-66
2022/03/30 12:07:54;;;;;;;20.00;5.50;;;16.00;68.30;;;;;;4970194;28;20074;-65
2022/03/30 12:10:28;;;;;;;24.73;7.00;;;15.90;68.00;;;;;;4969014;28;20079;-65
2022/03/30 12:12:55;;;;;;;20.88;6.35;;;15.80;68.60;;;;;;4967858;28;20072;-64
2022/03/30 12:15:22;;;;;;;25.75;6.10;;;15.80;69.20;;;;;;4950348;28;20086;-63
2022/03/30 12:18:06;;;;;;;26.80;6.63;;;15.80;69.50;;;;;;4951664;28;20459;-67
2022/03/30 12:20:34;;;;;;;25.10;6.03;;;15.70;70.30;;;;;;4967109;28;20767;-64
2022/03/30 12:23:10;;;;;;;27.42;6.25;;;15.70;70.10;;;;;;4966654;28;20075;-65
2022/03/30 12:25:44;;;;;;;23.73;6.28;;;15.60;69.70;;;;;;4952513;28;20095;-63
2022/03/30 12:28:10;;;;;;;28.60;7.55;;;15.70;70.10;;;;;;4933179;28;20071;-64
2022/03/30 12:30:38;;;;;;;32.35;10.52;;;15.60;70.00;;;;;;4953258;28;20162;-66
2022/03/30 12:33:05;;;;;;;39.15;11.23;;;15.60;69.40;;;;;;4933292;28;20142;-62
2022/03/30 12:35:35;;;;;;;52.92;13.80;;;15.50;69.40;;;;;;4949467;28;20090;-65
2022/03/30 12:38:14;;;;;;;48.72;13.18;;;15.50;69.20;;;;;;4950793;28;20138;-63
2022/03/30 12:40:43;;;;;;;58.15;14.98;;;15.60;69.40;;;;;;4966859;28;20080;-63
2022/03/30 12:43:10;;;;;;;67.40;15.88;;;15.70;69.10;;;;;;4950517;28;20098;-65
2022/03/30 12:45:53;;;;;;;89.47;20.58;;;15.70;69.00;;;;;;4952486;28;20158;-65
2022/03/30 12:48:27;;;;;;;80.40;20.55;;;15.60;68.60;;;;;;4968645;28;20067;-64
2022/03/30 12:50:54;;;;;;;85.70;22.70;;;15.50;68.70;;;;;;4965938;28;20524;-65
2022/03/30 12:53:29;;;;;;;81.95;23.17;;;15.50;68.70;;;;;;4965522;28;20076;-64
2022/03/30 12:55:55;;;;;;;68.40;24.73;;;15.50;68.90;;;;;;4955163;28;20122;-63
2022/03/30 12:58:25;;;;;;;86.88;26.90;;;15.60;69.30;;;;;;4963946;28;20072;-65